Time;durP1;ratioP1;P1;durP2;ratioP2;P2;SDS_P1;SDS_P2;PMS_P1;PMS_P2;Temp;Humidity;BMP_temperature;BMP_pressure;BME280_temperature;BME280_humidity;BME280_pressure;Samples;Min_cycle;Max_cycle;Signal;HPM_P1;HPM_P2
2023/07/11 00:01:15;;;;;;;5.95;3.20;;;;;;;26.86;36.13;99820.84;5131020;27;20098;-42
2023/07/11 00:03:41;;;;;;;4.97;3.33;;;;;;;26.78;36.43;99818.06;5129362;28;20062;-42
2023/07/11 00:06:12;;;;;;;3.38;3.05;;;;;;;26.63;37.08;99824.69;5130879;27;20088;-42
2023/07/11 00:08:38;;;;;;;3.58;3.17;;;;;;;26.33;37.81;99811.44;5133590;27;20106;-42
2023/07/11 00:11:06;;;;;;;3.92;3.13;;;;;;;26.11;38.39;99803.19;5134235;27;20627;-42
2023/07/11 00:13:32;;;;;;;4.55;3.45;;;;;;;26.21;38.38;99829.44;5134749;27;20079;-42
2023/07/11 00:16:17;;;;;;;4.25;3.67;;;;;;;26.36;38.35;99828.28;5134495;27;20031;-43
2023/07/11 00:18:43;;;;;;;3.80;3.17;;;;;;;26.38;38.01;99815.94;5134396;27;20392;-42
2023/07/11 00:21:09;;;;;;;3.55;3.13;;;;;;;26.35;38.33;99827.50;5134369;27;20103;-42
2023/07/11 00:23:35;;;;;;;4.20;3.20;;;;;;;26.19;38.62;99826.22;5134198;27;20069;-42
2023/07/11 00:26:01;;;;;;;6.32;3.83;;;;;;;26.14;38.70;99825.22;5134228;27;20023;-42
2023/07/11 00:28:26;;;;;;;3.50;3.20;;;;;;;26.17;38.95;99821.06;5132930;27;20049;-43
2023/07/11 00:30:52;;;;;;;4.30;3.53;;;;;;;25.96;39.30;99819.88;5133853;27;20122;-42
2023/07/11 00:33:18;;;;;;;4.85;3.55;;;;;;;25.92;39.52;99809.56;5134074;27;20031;-42
2023/07/11 00:35:46;;;;;;;4.20;3.47;;;;;;;26.10;38.95;99812.47;5133962;27;20027;-42
2023/07/11 00:38:12;;;;;;;4.20;3.60;;;;;;;26.28;38.69;99813.47;5134194;27;20035;-42
2023/07/11 00:40:42;;;;;;;5.78;3.50;;;;;;;26.23;38.69;99811.63;5134077;27;20027;-42
2023/07/11 00:43:10;;;;;;;4.20;3.58;;;;;;;26.08;39.27;99811.97;5134123;27;20019;-42
2023/07/11 00:46:02;;;;;;;4.80;3.63;;;;;;;26.22;38.71;99804.59;5133898;27;20031;-42
2023/07/11 00:48:28;;;;;;;4.03;3.20;;;;;;;26.22;38.66;99815.50;5133536;27;20088;-42
2023/07/11 00:50:55;;;;;;;3.42;3.13;;;;;;;26.13;38.84;99804.50;5133623;27;20405;-42
2023/07/11 00:53:21;;;;;;;5.22;3.53;;;;;;;26.12;38.92;99811.06;5133933;27;20105;-42
2023/07/11 00:55:47;;;;;;;3.92;3.30;;;;;;;26.04;38.90;99808.25;5133633;27;20484;-42
2023/07/11 00:58:16;;;;;;;4.55;3.55;;;;;;;26.16;38.61;99803.09;5133646;27;20023;-42
2023/07/11 01:00:41;;;;;;;4.85;3.47;;;;;;;26.11;38.79;99816.81;5133588;27;20034;-42
2023/07/11 01:03:07;;;;;;;6.30;3.63;;;;;;;26.19;38.81;99805.19;5133504;27;20027;-42
2023/07/11 01:05:32;;;;;;;4.20;3.30;;;;;;;26.38;38.05;99801.53;5133290;27;20023;-43
2023/07/11 01:07:58;;;;;;;4.68;3.65;;;;;;;26.42;38.12;99802.50;5133139;27;20084;-42
2023/07/11 01:10:23;;;;;;;3.90;3.22;;;;;;;26.27;38.30;99800.94;5133088;27;20051;-42
2023/07/11 01:12:49;;;;;;;4.53;3.65;;;;;;;26.36;38.37;99814.66;5133444;27;20027;-42
2023/07/11 01:15:16;;;;;;;5.15;3.53;;;;;;;26.24;38.41;99807.00;5133690;27;20031;-42
2023/07/11 01:17:42;;;;;;;4.03;3.47;;;;;;;26.17;38.66;99804.69;5133224;27;20043;-42
2023/07/11 01:20:09;;;;;;;4.18;3.45;;;;;;;26.03;38.96;99802.00;5133005;27;20041;-42
2023/07/11 01:22:39;;;;;;;4.45;3.42;;;;;;;26.19;38.94;99802.47;5133165;27;20451;-42
2023/07/11 01:25:11;;;;;;;4.18;3.60;;;;;;;26.18;38.75;99800.88;5133069;27;20495;-42
2023/07/11 01:27:39;;;;;;;4.28;3.38;;;;;;;26.19;38.70;99804.38;5133093;27;20502;-43
2023/07/11 01:30:07;;;;;;;6.40;3.67;;;;;;;26.20;38.70;99804.09;5132734;27;20019;-42
2023/07/11 01:32:32;;;;;;;4.53;3.20;;;;;;;26.10;39.04;99796.13;5133021;27;20028;-42
2023/07/11 01:34:58;;;;;;;5.95;3.88;;;;;;;26.10;38.85;99801.56;5132878;27;20042;-43
2023/07/11 01:37:23;;;;;;;4.55;3.45;;;;;;;25.96;39.36;99800.78;5132952;27;20091;-42
2023/07/11 01:39:49;;;;;;;3.70;3.28;;;;;;;25.98;39.24;99799.38;5132764;27;20106;-43
2023/07/11 01:42:14;;;;;;;4.20;3.63;;;;;;;25.82;39.74;99804.31;5132612;27;20027;-42
2023/07/11 01:44:40;;;;;;;5.50;3.88;;;;;;;25.83;39.36;99791.47;5132756;27;20546;-42
2023/07/11 01:47:07;;;;;;;7.15;3.90;;;;;;;26.30;38.39;99805.78;5132526;27;20459;-42
2023/07/11 01:49:33;;;;;;;6.38;3.70;;;;;;;26.05;38.88;99802.50;5132518;27;20374;-42
2023/07/11 01:52:16;;;;;;;4.40;3.53;;;;;;;26.05;38.92;99805.22;5132621;27;20031;-42
2023/07/11 01:54:42;;;;;;;5.05;3.70;;;;;;;25.95;38.95;99800.00;5132481;27;20031;-42
2023/07/11 01:57:07;;;;;;;6.28;3.75;;;;;;;25.65;39.83;99804.13;5132394;27;20034;-42
2023/07/11 01:59:33;;;;;;;5.78;3.90;;;;;;;25.51;40.27;99804.91;5132126;27;20027;-42
2023/07/11 02:01:59;;;;;;;5.20;3.90;;;;;;;25.88;39.52;99807.75;5132315;27;20048;-42
2023/07/11 02:04:24;;;;;;;5.82;3.95;;;;;;;25.90;39.59;99800.06;5132366;27;20031;-42
2023/07/11 02:06:50;;;;;;;4.47;4.07;;;;;;;26.02;39.52;99805.81;5132459;27;20042;-43
2023/07/11 02:09:20;;;;;;;4.53;3.85;;;;;;;25.99;39.35;99798.28;5132236;27;20035;-42
2023/07/11 02:11:46;;;;;;;5.65;4.00;;;;;;;25.98;39.42;99796.66;5131841;27;20065;-42
2023/07/11 02:14:13;;;;;;;4.70;3.92;;;;;;;25.94;39.41;99810.06;5132231;27;20554;-42
2023/07/11 02:16:39;;;;;;;4.97;3.90;;;;;;;26.11;39.20;99814.09;5132110;27;20050;-43
2023/07/11 02:19:04;;;;;;;4.43;3.72;;;;;;;26.13;39.14;99815.41;5132082;27;20065;-42
2023/07/11 02:21:30;;;;;;;4.95;4.40;;;;;;;26.07;39.35;99813.09;5132225;27;20023;-42
2023/07/11 02:23:55;;;;;;;4.82;3.60;;;;;;;26.19;39.10;99807.13;5131879;27;20080;-42
2023/07/11 02:26:22;;;;;;;4.20;3.78;;;;;;;25.62;40.32;99799.25;5131713;27;20023;-42
2023/07/11 02:28:48;;;;;;;7.05;4.15;;;;;;;25.38;40.81;99813.88;5131887;27;20035;-43
2023/07/11 02:31:14;;;;;;;5.57;4.00;;;;;;;25.36;40.67;99816.91;5131155;27;20412;-42
2023/07/11 02:33:40;;;;;;;4.75;3.85;;;;;;;24.73;42.15;99809.22;5131662;27;20095;-43
2023/07/11 02:36:06;;;;;;;5.63;4.00;;;;;;;24.58;42.32;99813.00;5131506;27;20019;-42
2023/07/11 02:38:31;;;;;;;5.43;3.90;;;;;;;24.29;43.06;99813.09;5131471;27;20080;-42
2023/07/11 02:40:56;;;;;;;6.50;4.10;;;;;;;24.45;42.77;99814.50;5131768;27;20076;-42
2023/07/11 02:43:22;;;;;;;5.38;3.80;;;;;;;24.57;42.49;99811.38;5131751;27;20023;-42
2023/07/11 02:45:47;;;;;;;6.25;3.90;;;;;;;24.92;41.96;99811.91;5131833;27;20509;-42
2023/07/11 02:48:13;;;;;;;5.85;4.00;;;;;;;25.22;41.34;99807.06;5131506;27;20027;-42
2023/07/11 02:50:38;;;;;;;6.90;3.97;;;;;;;25.44;40.76;99809.16;5131547;27;20023;-42
2023/07/11 02:53:04;;;;;;;5.72;3.63;;;;;;;25.63;40.23;99801.69;5131435;27;20094;-42
2023/07/11 02:55:29;;;;;;;5.57;4.10;;;;;;;25.53;40.45;99799.97;5131066;27;20073;-42
2023/07/11 02:57:55;;;;;;;4.85;3.92;;;;;;;25.19;41.03;99800.31;5131431;27;20038;-42
2023/07/11 03:00:20;;;;;;;5.28;3.75;;;;;;;25.11;41.17;99799.06;5131497;27;20110;-42
2023/07/11 03:02:46;;;;;;;5.00;4.00;;;;;;;24.98;41.51;99788.97;5131670;28;20102;-43
2023/07/11 03:05:11;;;;;;;5.10;3.90;;;;;;;25.11;41.34;99788.19;5131138;28;20437;-43
2023/07/11 03:07:37;;;;;;;16.58;10.90;;;;;;;24.84;42.00;99799.78;5131169;27;20470;-43
2023/07/11 03:10:02;;;;;;;24.95;16.38;;;;;;;24.56;42.49;99794.25;5130770;27;20418;-43
2023/07/11 03:12:28;;;;;;;21.42;13.48;;;;;;;24.39;43.08;99796.66;5131181;27;20027;-43
2023/07/11 03:14:53;;;;;;;28.15;17.92;;;;;;;24.55;42.55;99800.78;5131314;27;20041;-43
2023/07/11 03:17:19;;;;;;;8.15;4.68;;;;;;;24.68;42.42;99801.16;5131095;28;20019;-43
2023/07/11 03:19:44;;;;;;;6.78;4.20;;;;;;;24.80;42.17;99808.84;5131211;28;20076;-43
2023/07/11 03:22:09;;;;;;;5.38;4.00;;;;;;;24.90;41.91;99822.28;5130882;28;20036;-42
2023/07/11 03:24:35;;;;;;;4.80;3.92;;;;;;;24.99;41.69;99823.22;5131278;27;20500;-42
2023/07/11 03:27:01;;;;;;;6.38;3.97;;;;;;;24.80;42.22;99823.25;5131631;28;20023;-43
2023/07/11 03:29:26;;;;;;;4.47;3.92;;;;;;;24.92;41.73;99817.34;5131379;28;20106;-42
2023/07/11 03:31:52;;;;;;;5.50;4.10;;;;;;;24.98;41.78;99816.19;5131536;28;20023;-42
2023/07/11 03:34:17;;;;;;;5.35;3.90;;;;;;;24.92;41.87;99815.44;5131505;27;20030;-42
2023/07/11 03:36:43;;;;;;;5.43;4.00;;;;;;;25.13;41.46;99815.91;5131474;27;20383;-42
2023/07/11 03:39:08;;;;;;;5.97;3.95;;;;;;;25.17;41.53;99810.69;5131611;27;20023;-41
2023/07/11 03:41:34;;;;;;;6.78;3.85;;;;;;;25.32;41.36;99815.06;5131214;27;20471;-42
2023/07/11 03:44:00;;;;;;;4.70;4.15;;;;;;;25.45;41.23;99810.75;5134777;27;20464;-42
2023/07/11 03:46:26;;;;;;;5.13;3.92;;;;;;;25.52;41.11;99814.69;5135425;27;20079;-42
2023/07/11 03:48:54;;;;;;;5.03;4.20;;;;;;;25.41;41.10;99817.91;5135314;27;20097;-42
2023/07/11 03:51:19;;;;;;;5.00;4.03;;;;;;;25.44;40.98;99820.03;5135147;27;20107;-42
2023/07/11 03:53:46;;;;;;;4.47;3.88;;;;;;;25.64;40.62;99819.63;5135067;27;20089;-42
2023/07/11 03:56:11;;;;;;;6.40;4.20;;;;;;;25.64;40.57;99818.84;5135199;27;20029;-42
2023/07/11 03:58:37;;;;;;;6.00;3.67;;;;;;;25.59;41.03;99818.91;5134847;27;20339;-43
2023/07/11 04:01:02;;;;;;;5.07;4.32;;;;;;;25.95;40.35;99821.81;5134706;27;20036;-43
2023/07/11 04:03:27;;;;;;;6.15;4.30;;;;;;;26.28;39.81;99821.66;5134793;27;20028;-42
2023/07/11 04:05:55;;;;;;;7.47;4.60;;;;;;;26.37;39.66;99800.72;5135241;27;20076;-42
2023/07/11 04:08:20;;;;;;;5.45;4.07;;;;;;;26.56;39.20;99811.47;5135548;27;20027;-43
2023/07/11 04:10:46;;;;;;;5.43;4.18;;;;;;;26.70;38.89;99806.78;5135082;27;20054;-43
2023/07/11 04:13:11;;;;;;;6.13;4.15;;;;;;;27.05;38.29;99819.88;5135120;27;20038;-43
2023/07/11 04:15:36;;;;;;;5.70;4.53;;;;;;;26.96;38.43;99822.56;5135100;27;20021;-42
2023/07/11 04:18:02;;;;;;;5.90;3.95;;;;;;;27.00;38.32;99818.06;5135031;27;20326;-42
2023/07/11 04:20:27;;;;;;;7.07;4.97;;;;;;;27.41;37.63;99822.50;5135338;27;20058;-41
2023/07/11 04:22:53;;;;;;;6.82;4.53;;;;;;;27.90;37.11;99822.56;5134955;27;20031;-42
2023/07/11 04:25:18;;;;;;;4.40;3.90;;;;;;;28.11;36.58;99821.97;5134489;27;20027;-42
2023/07/11 04:27:44;;;;;;;8.77;3.92;;;;;;;28.42;36.12;99824.56;5134864;27;20084;-42
2023/07/11 04:30:10;;;;;;;6.63;3.90;;;;;;;28.69;35.72;99818.00;5134605;27;20015;-42
2023/07/11 04:32:35;;;;;;;6.95;4.30;;;;;;;28.92;35.50;99821.38;5135175;27;20019;-42
2023/07/11 04:35:01;;;;;;;4.88;4.05;;;;;;;29.11;35.38;99826.50;5135227;27;20058;-42
2023/07/11 04:37:27;;;;;;;5.13;4.35;;;;;;;29.61;34.26;99830.56;5134751;27;20050;-43
2023/07/11 04:39:52;;;;;;;6.50;4.82;;;;;;;29.88;33.95;99831.25;5134696;27;20062;-42
2023/07/11 04:42:18;;;;;;;6.00;3.90;;;;;;;29.82;33.51;99827.91;5134830;27;20447;-42
2023/07/11 04:44:43;;;;;;;7.72;4.30;;;;;;;30.04;33.14;99826.81;5134346;27;20518;-41
2023/07/11 04:47:09;;;;;;;4.35;3.95;;;;;;;30.30;33.15;99834.88;5134854;27;20019;-42
2023/07/11 04:49:34;;;;;;;5.68;4.07;;;;;;;30.32;33.10;99832.63;5134706;27;20497;-43
2023/07/11 04:52:00;;;;;;;6.43;4.22;;;;;;;30.54;32.51;99827.94;5134445;27;20027;-42
2023/07/11 04:54:25;;;;;;;5.32;3.80;;;;;;;30.71;32.51;99829.72;5133159;27;20023;-42
2023/07/11 04:56:56;;;;;;;19.83;13.80;;;;;;;30.87;32.41;99838.16;5133677;27;20019;-42
2023/07/11 04:59:22;;;;;;;11.40;6.68;;;;;;;31.07;32.28;99834.59;5133753;27;20027;-42
2023/07/11 05:01:47;;;;;;;6.53;4.20;;;;;;;31.07;32.52;99831.84;5133728;27;20019;-42
2023/07/11 05:04:12;;;;;;;5.22;3.97;;;;;;;31.31;32.27;99831.09;5133883;27;20026;-41
2023/07/11 05:06:40;;;;;;;5.70;4.10;;;;;;;31.50;31.68;99836.06;5133954;27;20508;-42
2023/07/11 05:09:06;;;;;;;6.53;4.10;;;;;;;31.56;31.72;99831.94;5133638;27;20160;-42
2023/07/11 05:11:32;;;;;;;5.57;4.65;;;;;;;31.83;31.50;99834.38;5133127;27;20058;-43
2023/07/11 05:13:57;;;;;;;7.28;3.85;;;;;;;32.34;30.74;99834.78;5132892;27;20031;-42
2023/07/11 05:16:28;;;;;;;13.82;10.38;;;;;;;32.85;29.92;99835.09;5133196;27;20543;-45
2023/07/11 05:18:55;;;;;;;7.38;4.82;;;;;;;33.03;29.98;99835.56;5133073;27;20047;-41
2023/07/11 05:21:21;;;;;;;5.03;3.90;;;;;;;33.13;30.13;99837.06;5132702;27;20019;-42
2023/07/11 05:23:47;;;;;;;5.72;3.90;;;;;;;33.31;29.48;99832.00;5133056;27;20023;-42
2023/07/11 05:26:13;;;;;;;5.90;4.00;;;;;;;33.17;29.47;99837.13;5132794;27;20025;-42
2023/07/11 05:28:38;;;;;;;8.35;4.05;;;;;;;33.38;28.72;99831.41;5132814;27;20051;-42
2023/07/11 05:31:06;;;;;;;5.93;3.90;;;;;;;33.08;29.05;99834.53;5132443;27;20129;-43
2023/07/11 05:33:32;;;;;;;5.93;3.80;;;;;;;32.96;29.62;99845.59;5132016;27;20118;-42
2023/07/11 05:36:45;;;;;;;6.57;3.85;;;;;;;33.21;29.20;99852.63;5132249;27;20102;-42
2023/07/11 05:38:45;;;;;;;5.30;3.80;;;;;;;33.66;29.13;99845.94;5121723;27;20041;-43
2023/07/11 05:41:11;;;;;;;6.35;3.70;;;;;;;33.79;28.68;99845.81;5132485;27;20102;-43
2023/07/11 05:43:36;;;;;;;5.38;3.92;;;;;;;34.19;28.40;99851.09;5132730;27;20027;-42
2023/07/11 05:46:02;;;;;;;5.43;3.92;;;;;;;33.57;28.52;99842.50;5132928;27;20027;-46
2023/07/11 05:48:27;;;;;;;4.40;4.00;;;;;;;34.22;27.79;99844.06;5132743;27;20023;-47
2023/07/11 05:51:00;;;;;;;4.20;3.70;;;;;;;34.65;27.30;99854.06;5132570;27;20072;-47
2023/07/11 05:53:27;;;;;;;4.38;3.75;;;;;;;33.77;28.07;99854.44;5132614;27;20027;-47
2023/07/11 05:55:52;;;;;;;7.28;3.90;;;;;;;34.16;27.53;99851.03;5132413;27;20070;-47
2023/07/11 05:58:18;;;;;;;6.40;3.80;;;;;;;34.44;27.70;99848.91;5132519;27;20046;-47
2023/07/11 06:00:44;;;;;;;4.68;4.00;;;;;;;34.75;26.96;99847.19;5131942;27;20042;-42
2023/07/11 06:03:09;;;;;;;6.70;3.55;;;;;;;34.92;26.91;99851.47;5131422;27;20031;-41
2023/07/11 06:05:35;;;;;;;5.25;3.55;;;;;;;35.00;26.83;99844.09;5130557;27;20023;-41
2023/07/11 06:08:00;;;;;;;6.30;4.07;;;;;;;35.44;26.33;99849.25;5131249;27;20130;-42
2023/07/11 06:10:26;;;;;;;6.82;3.95;;;;;;;35.41;26.10;99849.97;5130768;27;20074;-43
2023/07/11 06:12:51;;;;;;;4.38;3.63;;;;;;;35.00;26.87;99846.88;5131065;27;20083;-41
2023/07/11 06:15:17;;;;;;;5.70;3.70;;;;;;;34.85;26.75;99837.50;5131270;27;20076;-42
2023/07/11 06:17:43;;;;;;;4.63;3.63;;;;;;;34.61;26.82;99839.34;5129186;27;20251;-42
2023/07/11 06:20:09;;;;;;;6.30;4.40;;;;;;;35.14;27.22;99836.06;5129440;27;20123;-43
2023/07/11 06:22:35;;;;;;;5.65;3.70;;;;;;;35.55;26.43;99825.34;5129982;27;20114;-42
2023/07/11 06:25:02;;;;;;;6.72;4.68;;;;;;;36.47;25.29;99831.84;5129741;27;20039;-42
2023/07/11 06:27:28;;;;;;;5.80;4.80;;;;;;;35.96;25.64;99833.88;5130133;27;20379;-43
2023/07/11 06:29:54;;;;;;;5.57;3.83;;;;;;;35.99;25.49;99832.34;5129833;27;20027;-41
2023/07/11 06:32:19;;;;;;;7.28;4.20;;;;;;;35.98;25.19;99834.31;5130769;27;20110;-41
2023/07/11 06:34:45;;;;;;;5.00;4.00;;;;;;;36.34;25.41;99834.84;5130490;27;20023;-41
2023/07/11 06:37:11;;;;;;;4.95;3.90;;;;;;;36.62;24.93;99839.16;5130714;27;20027;-41
2023/07/11 06:39:37;;;;;;;4.22;3.75;;;;;;;36.50;24.85;99834.66;5130730;27;20049;-42
2023/07/11 06:42:03;;;;;;;4.57;3.75;;;;;;;36.75;24.21;99834.19;5130766;27;20023;-42
2023/07/11 06:44:30;;;;;;;3.90;3.50;;;;;;;36.95;24.92;99837.56;5130523;27;20027;-42
2023/07/11 06:46:55;;;;;;;7.57;3.60;;;;;;;35.89;25.25;99824.69;5130404;27;20102;-43
2023/07/11 06:49:21;;;;;;;5.50;3.60;;;;;;;36.34;25.19;99823.75;5130385;27;20546;-41
2023/07/11 06:51:49;;;;;;;5.97;3.58;;;;;;;35.98;25.50;99823.22;5130606;27;20439;-42
2023/07/11 06:54:15;;;;;;;6.80;3.58;;;;;;;36.52;25.08;99817.63;5130593;27;20702;-42
2023/07/11 06:56:40;;;;;;;4.80;4.00;;;;;;;37.04;24.51;99818.63;5130779;27;20055;-43
2023/07/11 06:59:05;;;;;;;4.05;3.65;;;;;;;37.49;24.29;99818.66;5130609;27;20474;-41
2023/07/11 07:01:32;;;;;;;5.80;3.60;;;;;;;37.49;24.04;99813.91;5130557;27;20106;-41
2023/07/11 07:03:58;;;;;;;4.53;4.05;;;;;;;37.51;23.84;99810.75;5130746;27;20038;-42
2023/07/11 07:06:24;;;;;;;7.95;3.80;;;;;;;37.65;24.11;99810.88;5130959;27;20045;-43
2023/07/11 07:08:49;;;;;;;5.65;3.80;;;;;;;37.17;24.62;99813.66;5130841;27;20467;-42
2023/07/11 07:11:15;;;;;;;5.03;3.65;;;;;;;36.72;24.40;99813.53;5130138;27;20050;-42
2023/07/11 07:13:40;;;;;;;6.70;4.00;;;;;;;37.25;23.82;99817.28;5130668;28;20050;-42
2023/07/11 07:16:06;;;;;;;5.85;3.80;;;;;;;37.44;23.59;99810.69;5130518;27;20019;-43
2023/07/11 07:18:35;;;;;;;4.07;3.60;;;;;;;36.76;24.37;99808.03;5134596;27;20046;-42
2023/07/11 07:21:02;;;;;;;6.93;3.80;;;;;;;37.32;24.12;99809.03;5134234;27;20026;-41
2023/07/11 07:23:28;;;;;;;4.53;3.72;;;;;;;37.63;24.17;99802.16;5134659;27;20390;-42
2023/07/11 07:26:00;;;;;;;5.20;3.70;;;;;;;37.95;23.53;99807.91;5134148;27;20019;-44
2023/07/11 07:28:27;;;;;;;6.07;3.90;;;;;;;38.18;23.16;99801.31;5134461;27;20015;-43
2023/07/11 07:30:54;;;;;;;7.68;3.90;;;;;;;38.29;23.34;99801.34;5134409;27;20470;-42
2023/07/11 07:33:23;;;;;;;4.75;3.50;;;;;;;37.94;23.52;99797.19;5134424;27;20026;-41
2023/07/11 07:35:49;;;;;;;5.90;3.55;;;;;;;37.82;23.26;99797.50;5134467;27;20023;-42
2023/07/11 07:38:15;;;;;;;4.45;3.67;;;;;;;37.19;23.30;99797.41;5134500;27;20098;-42
2023/07/11 07:40:41;;;;;;;4.18;3.40;;;;;;;37.30;23.02;99805.81;5134326;27;20027;-43
2023/07/11 07:43:06;;;;;;;4.47;3.65;;;;;;;37.70;23.44;99799.44;5134408;27;20099;-43
2023/07/11 07:45:32;;;;;;;4.50;3.60;;;;;;;37.64;22.78;99797.38;5134779;27;20408;-42
2023/07/11 07:47:57;;;;;;;5.65;3.88;;;;;;;37.44;23.05;99805.16;5134321;27;20046;-42
2023/07/11 07:50:23;;;;;;;6.32;3.78;;;;;;;37.85;22.97;99794.75;5133962;27;20027;-42
2023/07/11 07:52:48;;;;;;;3.90;3.50;;;;;;;38.06;22.67;99805.19;5133828;27;20023;-42
2023/07/11 07:55:14;;;;;;;3.80;3.40;;;;;;;37.79;22.80;99801.06;5133845;27;20019;-42
2023/07/11 07:57:39;;;;;;;7.30;3.80;;;;;;;37.63;22.70;99796.59;5133816;27;20019;-42
2023/07/11 08:00:06;;;;;;;5.13;3.50;;;;;;;37.92;22.64;99788.44;5133932;27;20015;-41
2023/07/11 08:02:32;;;;;;;5.13;3.78;;;;;;;38.53;22.34;99788.72;5133816;27;20069;-43
2023/07/11 08:04:58;;;;;;;5.85;3.53;;;;;;;38.82;22.40;99788.81;5133609;27;20026;-41
2023/07/11 08:07:26;;;;;;;5.95;3.80;;;;;;;37.92;22.69;99796.78;5133948;27;20019;-43
2023/07/11 08:09:54;;;;;;;5.45;3.55;;;;;;;37.51;23.54;99789.34;5133102;27;20048;-43
2023/07/11 08:12:19;;;;;;;5.05;3.85;;;;;;;38.28;22.62;99788.66;5133130;27;20037;-41
2023/07/11 08:14:44;;;;;;;5.28;3.53;;;;;;;37.71;22.93;99778.00;5133230;27;20023;-43
2023/07/11 08:17:10;;;;;;;7.47;3.83;;;;;;;36.63;23.41;99792.81;5133107;27;20051;-43
2023/07/11 08:19:36;;;;;;;5.82;3.80;;;;;;;36.48;23.27;99786.31;5133584;27;20027;-43
2023/07/11 08:22:01;;;;;;;5.32;3.47;;;;;;;37.70;22.59;99782.78;5132983;27;20397;-45
2023/07/11 08:24:27;;;;;;;6.13;3.75;;;;;;;37.89;21.98;99776.13;5133106;27;20079;-41
2023/07/11 08:26:53;;;;;;;5.40;3.50;;;;;;;38.19;21.90;99768.75;5132981;27;20076;-43
2023/07/11 08:29:18;;;;;;;5.78;3.50;;;;;;;38.30;21.81;99777.94;5132128;27;20414;-42
2023/07/11 08:31:44;;;;;;;5.63;3.60;;;;;;;37.53;22.07;99769.53;5132573;27;20501;-43
2023/07/11 08:34:09;;;;;;;5.32;3.35;;;;;;;36.89;22.47;99765.00;5132452;27;20069;-42
2023/07/11 08:36:38;;;;;;;5.22;3.83;;;;;;;37.42;22.66;99771.44;5132594;27;20068;-41
2023/07/11 08:39:03;;;;;;;4.53;3.55;;;;;;;37.90;22.17;99774.16;5132526;27;20128;-43
2023/07/11 08:41:46;;;;;;;4.65;3.30;;;;;;;38.03;21.92;99772.63;5132626;27;20043;-42
2023/07/11 08:44:29;;;;;;;4.57;3.40;;;;;;;38.60;21.15;99777.66;5132366;27;20027;-44
2023/07/11 08:47:11;;;;;;;4.20;3.38;;;;;;;38.56;21.33;99776.06;5132421;27;20107;-43
2023/07/11 08:49:51;;;;;;;5.60;3.25;;;;;;;37.84;22.15;99779.28;5132497;27;20022;-42
2023/07/11 08:52:19;;;;;;;5.38;3.60;;;;;;;38.44;22.28;99782.75;5133173;27;20108;-43
2023/07/11 08:54:54;;;;;;;5.97;3.80;;;;;;;38.62;21.75;99783.63;5133983;27;20049;-42
2023/07/11 08:57:23;;;;;;;4.28;3.60;;;;;;;39.06;20.73;99781.75;5133418;27;20047;-43
2023/07/11 09:00:00;;;;;;;4.18;3.50;;;;;;;39.10;21.36;99771.41;5133194;27;20474;-42
2023/07/11 09:02:38;;;;;;;6.35;3.20;;;;;;;39.62;20.41;99765.44;5133262;27;20050;-42
2023/07/11 09:05:10;;;;;;;4.03;3.60;;;;;;;38.89;21.27;99767.38;5133164;27;20023;-43
2023/07/11 09:07:43;;;;;;;3.90;3.50;;;;;;;39.08;21.22;99774.59;5133217;27;20066;-43
2023/07/11 09:10:43;;;;;;;3.83;3.42;;;;;;;39.38;20.84;99772.59;5133206;27;20058;-42
2023/07/11 09:13:52;;;;;;;4.13;3.47;;;;;;;39.27;20.98;99765.03;5133266;27;20023;-46
2023/07/11 09:16:29;;;;;;;4.65;3.45;;;;;;;39.42;20.81;99753.91;5133185;27;20076;-42
2023/07/11 09:19:02;;;;;;;3.70;3.28;;;;;;;40.02;20.83;99755.81;5133314;27;20026;-43
2023/07/11 09:21:56;;;;;;;6.28;3.65;;;;;;;39.81;20.99;99748.28;5132846;27;20019;-44
2023/07/11 09:24:41;;;;;;;7.75;3.72;;;;;;;39.82;20.66;99755.44;5132747;27;20038;-43
2023/07/11 09:27:24;;;;;;;5.70;3.80;;;;;;;40.43;20.74;99749.66;5132917;27;20026;-44
2023/07/11 09:29:50;;;;;;;4.05;3.60;;;;;;;39.99;21.19;99748.25;5133194;27;20015;-43
2023/07/11 09:32:17;;;;;;;4.70;3.50;;;;;;;40.55;20.36;99742.03;5132701;27;20623;-43
2023/07/11 09:34:48;;;;;;;5.53;3.78;;;;;;;39.39;21.71;99738.78;5132871;27;20547;-43
2023/07/11 09:37:21;;;;;;;5.38;3.35;;;;;;;38.94;21.96;99751.50;5132769;27;20030;-43
2023/07/11 09:40:03;;;;;;;5.25;3.65;;;;;;;38.41;22.39;99747.41;5131837;27;20456;-43
2023/07/11 09:42:42;;;;;;;4.80;3.60;;;;;;;38.32;22.70;99742.22;5132938;27;20144;-43
2023/07/11 09:45:16;;;;;;;5.45;3.65;;;;;;;38.58;22.65;99749.47;5132558;27;20027;-42
2023/07/11 09:47:47;;;;;;;6.47;3.85;;;;;;;39.46;21.43;99726.91;5132399;27;20500;-43
2023/07/11 09:50:36;;;;;;;4.13;3.70;;;;;;;39.12;21.99;99741.22;5132132;27;20031;-42
2023/07/11 09:53:02;;;;;;;4.90;3.50;;;;;;;38.48;22.26;99739.91;5132379;27;20490;-44
2023/07/11 09:55:34;;;;;;;4.28;3.35;;;;;;;38.09;22.87;99731.44;5132828;27;20398;-43
2023/07/11 09:58:01;;;;;;;4.60;3.67;;;;;;;38.04;23.04;99723.44;5132481;27;20015;-44
2023/07/11 10:00:28;;;;;;;4.63;3.50;;;;;;;38.31;22.94;99718.41;5132339;27;20072;-44
2023/07/11 10:02:56;;;;;;;5.10;3.70;;;;;;;37.83;23.25;99713.81;5132010;27;20249;-45
2023/07/11 10:05:24;;;;;;;6.35;3.58;;;;;;;37.29;23.76;99724.56;5132102;27;20484;-43
2023/07/11 10:07:59;;;;;;;7.95;4.25;;;;;;;37.33;24.14;99717.06;5132398;27;20023;-43
2023/07/11 10:10:25;;;;;;;7.15;4.10;;;;;;;37.90;23.43;99715.84;5132003;27;20047;-43
2023/07/11 10:12:50;;;;;;;4.38;3.80;;;;;;;38.44;22.81;99710.50;5132055;27;20050;-42
2023/07/11 10:15:18;;;;;;;5.80;3.80;;;;;;;38.15;23.26;99710.41;5131817;27;20137;-43
2023/07/11 10:17:44;;;;;;;8.43;3.83;;;;;;;38.39;23.51;99716.47;5131983;27;20433;-44
2023/07/11 10:20:20;;;;;;;4.68;3.90;;;;;;;38.58;23.24;99713.34;5131843;27;20081;-44
2023/07/11 10:22:52;;;;;;;4.18;3.60;;;;;;;38.46;23.36;99700.59;5131903;27;20490;-43
2023/07/11 10:25:21;;;;;;;6.35;3.58;;;;;;;38.31;23.69;99701.75;5131757;27;20080;-43
2023/07/11 10:27:54;;;;;;;6.95;4.00;;;;;;;38.06;23.83;99702.44;5131635;27;20035;-42
2023/07/11 10:30:25;;;;;;;4.38;3.60;;;;;;;38.62;23.07;99696.66;5131662;27;20056;-44
2023/07/11 10:33:00;;;;;;;4.07;3.67;;;;;;;39.24;22.83;99692.69;5131857;27;20027;-41
2023/07/11 10:35:26;;;;;;;5.80;4.22;;;;;;;39.36;22.75;99700.66;5131972;27;20033;-45
2023/07/11 10:38:04;;;;;;;4.47;3.80;;;;;;;38.84;23.07;99689.13;5132365;27;20062;-37
2023/07/11 10:40:38;;;;;;;4.95;3.80;;;;;;;39.42;22.51;99687.91;5131105;27;20478;-37
2023/07/11 10:43:25;;;;;;;4.63;3.60;;;;;;;39.24;22.37;99687.13;5131818;27;20027;-36
2023/07/11 10:45:57;;;;;;;11.10;4.22;;;;;;;38.01;23.44;99686.16;5131740;27;20023;-37
2023/07/11 10:48:34;;;;;;;5.70;3.80;;;;;;;38.20;23.30;99681.47;5131552;27;20023;-36
2023/07/11 10:51:08;;;;;;;6.80;3.65;;;;;;;38.86;22.95;99673.66;5130847;27;20114;-37
2023/07/11 10:53:41;;;;;;;5.32;3.70;;;;;;;38.66;22.65;99678.00;5131328;27;20100;-38
2023/07/11 10:56:40;;;;;;;5.07;3.50;;;;;;;38.77;22.98;99687.16;5131756;27;20035;-36
2023/07/11 10:59:11;;;;;;;3.60;3.28;;;;;;;39.55;22.10;99671.59;5127753;27;20047;-35
2023/07/11 11:02:05;;;;;;;4.15;3.47;;;;;;;39.67;21.98;99665.59;5131430;27;20155;-37
2023/07/11 11:04:49;;;;;;;6.25;3.78;;;;;;;39.27;22.13;99666.88;5130982;27;20035;-38
2023/07/11 11:07:23;;;;;;;4.20;3.65;;;;;;;38.60;22.40;99665.69;5131321;27;20035;-38
2023/07/11 11:10:42;;;;;;;6.15;3.42;;;;;;;38.27;22.46;99670.34;5131275;28;20070;-36
2023/07/11 11:14:02;;;;;;;4.82;4.10;;;;;;;38.38;22.05;99659.28;5067885;28;20292;-37
2023/07/11 11:16:48;;;;;;;6.05;4.18;;;;;;;39.13;22.37;99656.56;5035021;28;20104;-37
2023/07/11 11:19:40;;;;;;;5.40;3.60;;;;;;;38.48;23.02;99658.50;5131153;28;20069;-37
2023/07/11 11:22:17;;;;;;;5.15;3.65;;;;;;;39.07;22.82;99655.38;5131405;27;20132;-37
2023/07/11 11:24:59;;;;;;;6.43;4.00;;;;;;;39.45;22.43;99650.16;5131171;27;20023;-37
2023/07/11 11:27:45;;;;;;;4.00;3.60;;;;;;;39.61;22.16;99653.28;5130921;27;20322;-39
2023/07/11 11:30:29;;;;;;;4.50;3.90;;;;;;;38.90;22.17;99646.63;5131271;27;20031;-37
2023/07/11 11:33:16;;;;;;;7.07;4.18;;;;;;;38.98;22.09;99641.06;5131165;27;20129;-37
2023/07/11 11:35:46;;;;;;;5.50;3.92;;;;;;;39.34;22.11;99639.03;5130889;27;20126;-37
2023/07/11 11:38:36;;;;;;;4.13;3.72;;;;;;;39.04;21.89;99645.06;5131091;27;20411;-37
2023/07/11 11:41:14;;;;;;;4.55;3.80;;;;;;;38.99;21.41;99654.59;5131341;27;20015;-37
2023/07/11 11:43:41;;;;;;;4.43;3.90;;;;;;;39.00;21.28;99642.28;5131061;27;20019;-38